Nageezi, New Mexico
Current Conditions -  °F | °C
As of 5:53 PM on Monday 22 Dec 2014 (Local Time) from KFMN Reporting Station
Scattered Clouds Scattered Clouds  
Wind Chill: 33°   Ceiling: Unl
Heat Index: 42°   Visibility: 10mi
Dew Point: 30°   Wind: 22mph
Humidity: 62%   Direction: 310°NW
Pressure: 29.75"   Gusts: 36mph
Location:  36.27°N, 107.74°W
Report Text: KFMN 230053Z 31019G31KT 10SM FEW080 SCT095 06/M01 A2975 RMK AO2 PK WND 30043/0034 RAE2359B33E45 SLP072 P0000 T00561011
Loading
Personal Weather Stations






























Interactive Weather Map New forecast layout! Learn more

10-Day Weather Forecast

Advertisements
Track Severe Weather on mobile